sensor_id;sensor_type;location;lat;lon;timestamp;P1;durP1;ratioP1;P2;durP2;ratioP2
32333;SDS011;18810;53.040;8.850;2023-09-18T00:00:47;17.70;;;15.18;;
32333;SDS011;18810;53.040;8.850;2023-09-18T00:03:20;16.02;;;14.43;;
32333;SDS011;18810;53.040;8.850;2023-09-18T00:05:47;17.52;;;14.45;;
32333;SDS011;18810;53.040;8.850;2023-09-18T00:08:13;15.50;;;13.90;;
32333;SDS011;18810;53.040;8.850;2023-09-18T00:10:40;17.05;;;15.32;;
32333;SDS011;18810;53.040;8.850;2023-09-18T00:13:06;16.42;;;14.70;;
32333;SDS011;18810;53.040;8.850;2023-09-18T00:15:32;17.23;;;14.88;;
32333;SDS011;18810;53.040;8.850;2023-09-18T00:17:57;19.38;;;15.45;;
32333;SDS011;18810;53.040;8.850;2023-09-18T00:20:23;18.08;;;16.10;;
32333;SDS011;18810;53.040;8.850;2023-09-18T00:22:55;18.00;;;16.10;;
32333;SDS011;18810;53.040;8.850;2023-09-18T00:25:21;17.33;;;15.48;;
32333;SDS011;18810;53.040;8.850;2023-09-18T00:27:48;17.50;;;15.65;;
32333;SDS011;18810;53.040;8.850;2023-09-18T00:30:14;19.90;;;17.80;;
32333;SDS011;18810;53.040;8.850;2023-09-18T00:32:40;18.25;;;16.25;;
32333;SDS011;18810;53.040;8.850;2023-09-18T00:35:06;19.42;;;16.63;;
32333;SDS011;18810;53.040;8.850;2023-09-18T00:37:32;17.13;;;15.43;;
32333;SDS011;18810;53.040;8.850;2023-09-18T00:39:57;17.40;;;15.70;;
32333;SDS011;18810;53.040;8.850;2023-09-18T00:42:24;18.27;;;16.13;;
32333;SDS011;18810;53.040;8.850;2023-09-18T00:44:49;18.85;;;16.13;;
32333;SDS011;18810;53.040;8.850;2023-09-18T00:47:15;21.50;;;17.15;;
32333;SDS011;18810;53.040;8.850;2023-09-18T00:49:43;18.00;;;16.10;;
32333;SDS011;18810;53.040;8.850;2023-09-18T00:52:12;19.67;;;17.57;;
32333;SDS011;18810;53.040;8.850;2023-09-18T00:54:39;18.77;;;16.77;;
32333;SDS011;18810;53.040;8.850;2023-09-18T00:57:07;18.52;;;15.70;;
32333;SDS011;18810;53.040;8.850;2023-09-18T00:59:35;19.55;;;16.42;;
32333;SDS011;18810;53.040;8.850;2023-09-18T01:02:04;18.35;;;16.33;;
32333;SDS011;18810;53.040;8.850;2023-09-18T01:04:30;18.13;;;15.90;;
32333;SDS011;18810;53.040;8.850;2023-09-18T01:06:58;18.15;;;15.00;;
32333;SDS011;18810;53.040;8.850;2023-09-18T01:09:26;19.77;;;15.95;;
32333;SDS011;18810;53.040;8.850;2023-09-18T01:11:54;18.58;;;14.98;;
32333;SDS011;18810;53.040;8.850;2023-09-18T01:17:09;16.98;;;15.27;;
32333;SDS011;18810;53.040;8.850;2023-09-18T01:22:15;19.30;;;16.35;;
32333;SDS011;18810;53.040;8.850;2023-09-18T01:24:42;19.73;;;16.33;;
32333;SDS011;18810;53.040;8.850;2023-09-18T01:27:10;20.00;;;15.27;;
32333;SDS011;18810;53.040;8.850;2023-09-18T01:29:38;17.10;;;15.07;;
32333;SDS011;18810;53.040;8.850;2023-09-18T01:32:04;19.05;;;16.25;;
32333;SDS011;18810;53.040;8.850;2023-09-18T01:34:34;18.58;;;15.63;;
32333;SDS011;18810;53.040;8.850;2023-09-18T01:37:05;15.93;;;14.32;;
32333;SDS011;18810;53.040;8.850;2023-09-18T01:39:32;17.10;;;15.40;;
32333;SDS011;18810;53.040;8.850;2023-09-18T01:42:00;17.88;;;15.98;;
32333;SDS011;18810;53.040;8.850;2023-09-18T01:44:29;16.92;;;15.15;;
32333;SDS011;18810;53.040;8.850;2023-09-18T01:46:58;17.65;;;14.80;;
32333;SDS011;18810;53.040;8.850;2023-09-18T01:49:27;19.85;;;15.85;;
32333;SDS011;18810;53.040;8.850;2023-09-18T01:51:59;17.00;;;14.73;;
32333;SDS011;18810;53.040;8.850;2023-09-18T01:54:25;17.48;;;15.63;;
32333;SDS011;18810;53.040;8.850;2023-09-18T01:56:52;17.60;;;15.13;;
32333;SDS011;18810;53.040;8.850;2023-09-18T01:59:18;17.50;;;15.60;;
32333;SDS011;18810;53.040;8.850;2023-09-18T02:01:44;16.90;;;15.02;;
32333;SDS011;18810;53.040;8.850;2023-09-18T02:04:10;16.65;;;14.85;;
32333;SDS011;18810;53.040;8.850;2023-09-18T02:06:36;19.67;;;16.05;;
32333;SDS011;18810;53.040;8.850;2023-09-18T02:09:02;17.00;;;14.98;;
32333;SDS011;18810;53.040;8.850;2023-09-18T02:11:30;18.23;;;15.23;;
32333;SDS011;18810;53.040;8.850;2023-09-18T02:13:56;17.10;;;15.27;;
32333;SDS011;18810;53.040;8.850;2023-09-18T02:16:22;17.08;;;15.13;;
32333;SDS011;18810;53.040;8.850;2023-09-18T02:18:49;17.58;;;15.35;;
32333;SDS011;18810;53.040;8.850;2023-09-18T02:21:21;19.23;;;15.85;;
32333;SDS011;18810;53.040;8.850;2023-09-18T02:23:51;17.58;;;15.30;;
32333;SDS011;18810;53.040;8.850;2023-09-18T02:26:18;18.58;;;16.35;;
32333;SDS011;18810;53.040;8.850;2023-09-18T02:28:44;17.02;;;15.02;;
32333;SDS011;18810;53.040;8.850;2023-09-18T02:31:10;16.38;;;14.68;;
32333;SDS011;18810;53.040;8.850;2023-09-18T02:33:36;17.48;;;14.75;;
32333;SDS011;18810;53.040;8.850;2023-09-18T02:36:03;15.63;;;14.02;;
32333;SDS011;18810;53.040;8.850;2023-09-18T02:38:29;16.85;;;14.63;;
32333;SDS011;18810;53.040;8.850;2023-09-18T02:40:55;16.92;;;14.93;;
32333;SDS011;18810;53.040;8.850;2023-09-18T02:43:22;18.08;;;14.95;;
32333;SDS011;18810;53.040;8.850;2023-09-18T02:45:48;15.07;;;13.48;;
32333;SDS011;18810;53.040;8.850;2023-09-18T02:48:15;16.50;;;14.82;;
32333;SDS011;18810;53.040;8.850;2023-09-18T02:50:41;15.75;;;14.13;;
32333;SDS011;18810;53.040;8.850;2023-09-18T02:53:07;17.70;;;15.57;;
32333;SDS011;18810;53.040;8.850;2023-09-18T02:55:42;16.65;;;13.77;;
32333;SDS011;18810;53.040;8.850;2023-09-18T02:58:08;14.57;;;13.18;;
32333;SDS011;18810;53.040;8.850;2023-09-18T03:00:35;19.73;;;15.13;;
32333;SDS011;18810;53.040;8.850;2023-09-18T03:05:31;15.95;;;13.73;;
32333;SDS011;18810;53.040;8.850;2023-09-18T03:07:57;18.13;;;14.38;;
32333;SDS011;18810;53.040;8.850;2023-09-18T03:10:23;16.42;;;13.75;;
32333;SDS011;18810;53.040;8.850;2023-09-18T03:12:48;16.77;;;13.52;;
32333;SDS011;18810;53.040;8.850;2023-09-18T03:15:14;17.13;;;14.02;;
32333;SDS011;18810;53.040;8.850;2023-09-18T03:17:40;16.98;;;13.73;;
32333;SDS011;18810;53.040;8.850;2023-09-18T03:20:07;16.65;;;13.35;;
32333;SDS011;18810;53.040;8.850;2023-09-18T03:22:34;15.65;;;13.65;;
32333;SDS011;18810;53.040;8.850;2023-09-18T03:25:00;16.42;;;13.18;;
32333;SDS011;18810;53.040;8.850;2023-09-18T03:27:26;16.10;;;12.90;;
32333;SDS011;18810;53.040;8.850;2023-09-18T03:29:57;16.00;;;13.00;;
32333;SDS011;18810;53.040;8.850;2023-09-18T03:32:23;13.55;;;12.13;;
32333;SDS011;18810;53.040;8.850;2023-09-18T03:34:52;15.13;;;13.52;;
32333;SDS011;18810;53.040;8.850;2023-09-18T03:37:18;16.70;;;13.45;;
32333;SDS011;18810;53.040;8.850;2023-09-18T03:39:44;16.42;;;13.68;;
32333;SDS011;18810;53.040;8.850;2023-09-18T03:42:10;14.50;;;12.90;;
32333;SDS011;18810;53.040;8.850;2023-09-18T03:44:36;14.85;;;12.65;;
32333;SDS011;18810;53.040;8.850;2023-09-18T03:47:02;14.95;;;13.25;;
32333;SDS011;18810;53.040;8.850;2023-09-18T03:49:29;17.33;;;13.93;;
32333;SDS011;18810;53.040;8.850;2023-09-18T03:51:54;16.13;;;13.23;;
32333;SDS011;18810;53.040;8.850;2023-09-18T03:54:20;15.82;;;13.85;;
32333;SDS011;18810;53.040;8.850;2023-09-18T03:56:46;15.15;;;13.27;;
32333;SDS011;18810;53.040;8.850;2023-09-18T03:59:12;14.05;;;12.35;;
32333;SDS011;18810;53.040;8.850;2023-09-18T04:01:38;13.93;;;12.48;;
32333;SDS011;18810;53.040;8.850;2023-09-18T04:04:04;16.33;;;12.98;;
32333;SDS011;18810;53.040;8.850;2023-09-18T04:06:40;16.15;;;13.10;;
32333;SDS011;18810;53.040;8.850;2023-09-18T04:09:07;14.52;;;12.32;;
32333;SDS011;18810;53.040;8.850;2023-09-18T04:11:34;15.68;;;13.27;;
32333;SDS011;18810;53.040;8.850;2023-09-18T04:14:00;15.38;;;12.75;;
32333;SDS011;18810;53.040;8.850;2023-09-18T04:16:26;17.23;;;12.48;;
32333;SDS011;18810;53.040;8.850;2023-09-18T04:19:02;13.20;;;11.63;;
32333;SDS011;18810;53.040;8.850;2023-09-18T04:21:28;14.07;;;12.00;;
32333;SDS011;18810;53.040;8.850;2023-09-18T04:23:57;14.40;;;12.18;;
32333;SDS011;18810;53.040;8.850;2023-09-18T04:26:24;16.50;;;12.13;;
32333;SDS011;18810;53.040;8.850;2023-09-18T04:28:54;14.15;;;12.45;;
32333;SDS011;18810;53.040;8.850;2023-09-18T04:31:20;15.20;;;11.65;;
32333;SDS011;18810;53.040;8.850;2023-09-18T04:33:46;13.43;;;11.20;;
32333;SDS011;18810;53.040;8.850;2023-09-18T04:36:12;13.48;;;11.88;;
32333;SDS011;18810;53.040;8.850;2023-09-18T04:38:37;14.20;;;11.02;;
32333;SDS011;18810;53.040;8.850;2023-09-18T04:41:03;15.00;;;12.07;;
32333;SDS011;18810;53.040;8.850;2023-09-18T04:43:29;11.77;;;10.57;;
32333;SDS011;18810;53.040;8.850;2023-09-18T04:45:55;13.15;;;11.85;;
32333;SDS011;18810;53.040;8.850;2023-09-18T04:48:21;14.23;;;12.20;;
32333;SDS011;18810;53.040;8.850;2023-09-18T04:50:48;12.63;;;11.32;;
32333;SDS011;18810;53.040;8.850;2023-09-18T04:53:14;15.45;;;11.43;;
32333;SDS011;18810;53.040;8.850;2023-09-18T04:55:39;15.13;;;11.48;;
32333;SDS011;18810;53.040;8.850;2023-09-18T04:58:06;13.05;;;10.80;;
32333;SDS011;18810;53.040;8.850;2023-09-18T05:00:32;12.52;;;11.23;;
32333;SDS011;18810;53.040;8.850;2023-09-18T05:02:58;13.98;;;11.00;;
32333;SDS011;18810;53.040;8.850;2023-09-18T05:05:26;12.80;;;11.20;;
32333;SDS011;18810;53.040;8.850;2023-09-18T05:07:52;13.93;;;11.30;;
32333;SDS011;18810;53.040;8.850;2023-09-18T05:10:18;12.43;;;10.60;;
32333;SDS011;18810;53.040;8.850;2023-09-18T05:12:44;13.35;;;11.35;;
32333;SDS011;18810;53.040;8.850;2023-09-18T05:15:10;12.02;;;10.70;;
32333;SDS011;18810;53.040;8.850;2023-09-18T05:17:45;16.08;;;11.07;;
32333;SDS011;18810;53.040;8.850;2023-09-18T05:20:13;12.40;;;10.43;;
32333;SDS011;18810;53.040;8.850;2023-09-18T05:22:42;12.07;;;10.38;;
32333;SDS011;18810;53.040;8.850;2023-09-18T05:25:11;11.93;;;10.10;;
32333;SDS011;18810;53.040;8.850;2023-09-18T05:27:39;11.35;;;9.82;;
32333;SDS011;18810;53.040;8.850;2023-09-18T05:30:12;11.98;;;10.55;;
32333;SDS011;18810;53.040;8.850;2023-09-18T05:32:43;13.43;;;10.23;;
32333;SDS011;18810;53.040;8.850;2023-09-18T05:35:09;12.98;;;10.35;;
32333;SDS011;18810;53.040;8.850;2023-09-18T05:37:37;15.15;;;9.80;;
32333;SDS011;18810;53.040;8.850;2023-09-18T05:40:04;15.80;;;10.20;;
32333;SDS011;18810;53.040;8.850;2023-09-18T05:42:33;11.80;;;9.50;;
32333;SDS011;18810;53.040;8.850;2023-09-18T05:44:58;13.95;;;10.82;;
32333;SDS011;18810;53.040;8.850;2023-09-18T05:47:24;13.18;;;10.57;;
32333;SDS011;18810;53.040;8.850;2023-09-18T05:49:50;11.77;;;10.07;;
32333;SDS011;18810;53.040;8.850;2023-09-18T05:52:15;14.60;;;10.65;;
32333;SDS011;18810;53.040;8.850;2023-09-18T05:54:41;12.77;;;11.20;;
32333;SDS011;18810;53.040;8.850;2023-09-18T05:57:07;20.33;;;12.02;;
32333;SDS011;18810;53.040;8.850;2023-09-18T05:59:32;16.20;;;12.20;;
32333;SDS011;18810;53.040;8.850;2023-09-18T06:01:58;23.38;;;14.20;;
32333;SDS011;18810;53.040;8.850;2023-09-18T06:04:24;16.52;;;12.32;;
32333;SDS011;18810;53.040;8.850;2023-09-18T06:06:50;17.10;;;13.30;;
32333;SDS011;18810;53.040;8.850;2023-09-18T06:09:16;16.77;;;13.73;;
32333;SDS011;18810;53.040;8.850;2023-09-18T06:11:43;17.15;;;12.73;;
32333;SDS011;18810;53.040;8.850;2023-09-18T06:14:09;18.75;;;14.15;;
32333;SDS011;18810;53.040;8.850;2023-09-18T06:16:35;19.33;;;15.23;;
32333;SDS011;18810;53.040;8.850;2023-09-18T06:19:01;17.05;;;13.80;;
32333;SDS011;18810;53.040;8.850;2023-09-18T06:21:27;16.83;;;14.05;;
32333;SDS011;18810;53.040;8.850;2023-09-18T06:23:53;15.55;;;13.93;;
32333;SDS011;18810;53.040;8.850;2023-09-18T06:26:19;16.42;;;14.20;;
32333;SDS011;18810;53.040;8.850;2023-09-18T06:28:46;16.95;;;13.05;;
32333;SDS011;18810;53.040;8.850;2023-09-18T06:31:12;17.35;;;13.45;;
32333;SDS011;18810;53.040;8.850;2023-09-18T06:33:38;17.85;;;13.57;;
32333;SDS011;18810;53.040;8.850;2023-09-18T06:36:03;14.60;;;12.48;;
32333;SDS011;18810;53.040;8.850;2023-09-18T06:38:29;17.80;;;12.70;;
32333;SDS011;18810;53.040;8.850;2023-09-18T06:40:55;15.02;;;12.18;;
32333;SDS011;18810;53.040;8.850;2023-09-18T06:43:21;14.00;;;11.73;;
32333;SDS011;18810;53.040;8.850;2023-09-18T06:45:48;16.30;;;12.75;;
32333;SDS011;18810;53.040;8.850;2023-09-18T06:48:13;14.10;;;12.27;;
32333;SDS011;18810;53.040;8.850;2023-09-18T06:50:40;16.02;;;11.75;;
32333;SDS011;18810;53.040;8.850;2023-09-18T06:53:06;15.80;;;12.52;;
32333;SDS011;18810;53.040;8.850;2023-09-18T06:55:32;13.00;;;11.52;;
32333;SDS011;18810;53.040;8.850;2023-09-18T06:57:57;16.83;;;11.50;;
32333;SDS011;18810;53.040;8.850;2023-09-18T07:00:23;16.90;;;12.18;;
32333;SDS011;18810;53.040;8.850;2023-09-18T07:02:50;16.02;;;12.45;;
32333;SDS011;18810;53.040;8.850;2023-09-18T07:05:16;15.55;;;12.35;;
32333;SDS011;18810;53.040;8.850;2023-09-18T07:07:41;13.57;;;12.18;;
32333;SDS011;18810;53.040;8.850;2023-09-18T07:10:07;15.55;;;12.77;;
32333;SDS011;18810;53.040;8.850;2023-09-18T07:12:33;16.55;;;12.70;;
32333;SDS011;18810;53.040;8.850;2023-09-18T07:15:02;14.55;;;12.98;;
32333;SDS011;18810;53.040;8.850;2023-09-18T07:17:28;17.77;;;13.73;;
32333;SDS011;18810;53.040;8.850;2023-09-18T07:19:54;20.08;;;13.77;;
32333;SDS011;18810;53.040;8.850;2023-09-18T07:22:20;17.85;;;14.10;;
32333;SDS011;18810;53.040;8.850;2023-09-18T07:24:46;16.58;;;14.07;;
32333;SDS011;18810;53.040;8.850;2023-09-18T07:27:11;16.73;;;13.70;;
32333;SDS011;18810;53.040;8.850;2023-09-18T07:29:38;16.42;;;13.52;;
32333;SDS011;18810;53.040;8.850;2023-09-18T07:32:04;15.75;;;12.73;;
32333;SDS011;18810;53.040;8.850;2023-09-18T07:34:30;14.98;;;13.27;;
32333;SDS011;18810;53.040;8.850;2023-09-18T07:36:55;17.58;;;13.57;;
32333;SDS011;18810;53.040;8.850;2023-09-18T07:39:21;17.27;;;14.13;;
32333;SDS011;18810;53.040;8.850;2023-09-18T07:41:47;18.00;;;14.32;;
32333;SDS011;18810;53.040;8.850;2023-09-18T07:44:19;20.20;;;14.45;;
32333;SDS011;18810;53.040;8.850;2023-09-18T07:46:45;18.50;;;13.05;;
32333;SDS011;18810;53.040;8.850;2023-09-18T07:49:11;17.20;;;14.18;;
32333;SDS011;18810;53.040;8.850;2023-09-18T07:51:38;15.18;;;13.55;;
32333;SDS011;18810;53.040;8.850;2023-09-18T07:54:03;18.08;;;13.75;;
32333;SDS011;18810;53.040;8.850;2023-09-18T07:56:29;16.15;;;13.60;;
32333;SDS011;18810;53.040;8.850;2023-09-18T07:58:58;15.02;;;12.40;;
32333;SDS011;18810;53.040;8.850;2023-09-18T08:01:24;14.82;;;13.25;;
32333;SDS011;18810;53.040;8.850;2023-09-18T08:03:49;16.95;;;13.60;;
32333;SDS011;18810;53.040;8.850;2023-09-18T08:06:15;14.63;;;12.75;;
32333;SDS011;18810;53.040;8.850;2023-09-18T08:08:44;15.23;;;12.65;;
32333;SDS011;18810;53.040;8.850;2023-09-18T08:11:09;13.30;;;11.40;;
32333;SDS011;18810;53.040;8.850;2023-09-18T08:13:35;15.32;;;11.88;;
32333;SDS011;18810;53.040;8.850;2023-09-18T08:16:02;13.10;;;11.77;;
32333;SDS011;18810;53.040;8.850;2023-09-18T08:18:30;13.68;;;12.25;;
32333;SDS011;18810;53.040;8.850;2023-09-18T08:20:56;13.57;;;11.25;;
32333;SDS011;18810;53.040;8.850;2023-09-18T08:23:23;13.20;;;11.77;;
32333;SDS011;18810;53.040;8.850;2023-09-18T08:25:50;13.52;;;10.90;;
32333;SDS011;18810;53.040;8.850;2023-09-18T08:28:22;12.35;;;10.95;;
32333;SDS011;18810;53.040;8.850;2023-09-18T08:30:48;13.55;;;10.95;;
32333;SDS011;18810;53.040;8.850;2023-09-18T08:33:14;12.55;;;10.15;;
32333;SDS011;18810;53.040;8.850;2023-09-18T08:35:39;11.18;;;9.70;;
32333;SDS011;18810;53.040;8.850;2023-09-18T08:38:05;12.05;;;9.98;;
32333;SDS011;18810;53.040;8.850;2023-09-18T08:40:32;15.13;;;9.20;;
32333;SDS011;18810;53.040;8.850;2023-09-18T08:42:59;12.45;;;8.68;;
32333;SDS011;18810;53.040;8.850;2023-09-18T08:45:37;11.40;;;8.73;;
32333;SDS011;18810;53.040;8.850;2023-09-18T08:48:08;12.65;;;9.40;;
32333;SDS011;18810;53.040;8.850;2023-09-18T08:50:34;12.23;;;8.13;;
32333;SDS011;18810;53.040;8.850;2023-09-18T08:53:01;12.77;;;8.48;;
32333;SDS011;18810;53.040;8.850;2023-09-18T08:55:27;11.10;;;8.07;;
32333;SDS011;18810;53.040;8.850;2023-09-18T08:57:53;10.65;;;7.95;;
32333;SDS011;18810;53.040;8.850;2023-09-18T09:00:23;10.50;;;7.10;;
32333;SDS011;18810;53.040;8.850;2023-09-18T09:02:48;11.93;;;7.72;;
32333;SDS011;18810;53.040;8.850;2023-09-18T09:05:16;10.52;;;7.05;;
32333;SDS011;18810;53.040;8.850;2023-09-18T09:07:42;9.07;;;6.70;;
32333;SDS011;18810;53.040;8.850;2023-09-18T09:10:08;8.27;;;6.40;;
32333;SDS011;18810;53.040;8.850;2023-09-18T09:15:23;8.43;;;6.05;;
32333;SDS011;18810;53.040;8.850;2023-09-18T09:17:51;10.23;;;5.55;;
32333;SDS011;18810;53.040;8.850;2023-09-18T09:20:26;9.27;;;5.88;;
32333;SDS011;18810;53.040;8.850;2023-09-18T09:22:52;11.40;;;5.72;;
32333;SDS011;18810;53.040;8.850;2023-09-18T09:27:56;13.75;;;6.10;;
32333;SDS011;18810;53.040;8.850;2023-09-18T09:30:27;10.07;;;5.72;;
32333;SDS011;18810;53.040;8.850;2023-09-18T09:32:54;10.13;;;5.68;;
32333;SDS011;18810;53.040;8.850;2023-09-18T09:35:54;12.27;;;5.50;;
32333;SDS011;18810;53.040;8.850;2023-09-18T09:38:14;13.43;;;5.90;;
32333;SDS011;18810;53.040;8.850;2023-09-18T09:40:41;11.32;;;5.75;;
32333;SDS011;18810;53.040;8.850;2023-09-18T09:43:09;14.48;;;5.60;;
32333;SDS011;18810;53.040;8.850;2023-09-18T09:45:38;9.27;;;4.95;;
32333;SDS011;18810;53.040;8.850;2023-09-18T09:48:06;14.95;;;5.55;;
32333;SDS011;18810;53.040;8.850;2023-09-18T09:50:34;12.43;;;5.15;;
32333;SDS011;18810;53.040;8.850;2023-09-18T09:53:13;9.00;;;4.68;;
32333;SDS011;18810;53.040;8.850;2023-09-18T09:55:39;11.32;;;4.95;;
32333;SDS011;18810;53.040;8.850;2023-09-18T09:58:06;10.13;;;4.70;;
32333;SDS011;18810;53.040;8.850;2023-09-18T10:00:35;9.30;;;4.88;;
32333;SDS011;18810;53.040;8.850;2023-09-18T10:03:06;11.32;;;5.43;;
32333;SDS011;18810;53.040;8.850;2023-09-18T10:05:40;10.38;;;5.03;;
32333;SDS011;18810;53.040;8.850;2023-09-18T10:08:12;9.55;;;4.30;;
32333;SDS011;18810;53.040;8.850;2023-09-18T10:10:49;12.93;;;4.93;;
32333;SDS011;18810;53.040;8.850;2023-09-18T10:13:20;8.30;;;4.45;;
32333;SDS011;18810;53.040;8.850;2023-09-18T10:15:53;7.38;;;4.20;;
32333;SDS011;18810;53.040;8.850;2023-09-18T10:20:52;8.93;;;4.63;;
32333;SDS011;18810;53.040;8.850;2023-09-18T10:23:34;12.82;;;4.93;;
32333;SDS011;18810;53.040;8.850;2023-09-18T10:26:18;12.20;;;4.53;;
32333;SDS011;18810;53.040;8.850;2023-09-18T10:28:50;9.75;;;4.47;;
32333;SDS011;18810;53.040;8.850;2023-09-18T10:31:21;15.07;;;4.65;;
32333;SDS011;18810;53.040;8.850;2023-09-18T10:33:48;10.07;;;4.30;;
32333;SDS011;18810;53.040;8.850;2023-09-18T10:36:15;6.05;;;4.40;;
32333;SDS011;18810;53.040;8.850;2023-09-18T10:38:43;12.20;;;4.20;;
32333;SDS011;18810;53.040;8.850;2023-09-18T10:41:14;13.13;;;5.20;;
32333;SDS011;18810;53.040;8.850;2023-09-18T10:43:47;11.38;;;4.30;;
32333;SDS011;18810;53.040;8.850;2023-09-18T10:46:14;9.23;;;4.72;;
32333;SDS011;18810;53.040;8.850;2023-09-18T10:48:41;11.48;;;4.70;;
32333;SDS011;18810;53.040;8.850;2023-09-18T10:51:08;11.45;;;4.70;;
32333;SDS011;18810;53.040;8.850;2023-09-18T10:53:35;12.13;;;4.82;;
32333;SDS011;18810;53.040;8.850;2023-09-18T10:56:05;10.60;;;4.70;;
32333;SDS011;18810;53.040;8.850;2023-09-18T10:58:32;11.30;;;4.90;;
32333;SDS011;18810;53.040;8.850;2023-09-18T11:01:01;11.85;;;4.60;;
32333;SDS011;18810;53.040;8.850;2023-09-18T11:03:27;10.50;;;4.10;;
32333;SDS011;18810;53.040;8.850;2023-09-18T11:06:06;9.73;;;4.82;;
32333;SDS011;18810;53.040;8.850;2023-09-18T11:08:49;10.13;;;4.40;;
32333;SDS011;18810;53.040;8.850;2023-09-18T11:11:17;6.60;;;4.03;;
32333;SDS011;18810;53.040;8.850;2023-09-18T11:13:49;11.90;;;4.50;;
32333;SDS011;18810;53.040;8.850;2023-09-18T11:21:26;6.60;;;3.85;;
32333;SDS011;18810;53.040;8.850;2023-09-18T11:26:29;8.43;;;3.70;;
32333;SDS011;18810;53.040;8.850;2023-09-18T11:28:58;10.55;;;3.88;;
32333;SDS011;18810;53.040;8.850;2023-09-18T11:32:08;8.02;;;4.10;;
32333;SDS011;18810;53.040;8.850;2023-09-18T11:36:47;9.55;;;4.43;;
32333;SDS011;18810;53.040;8.850;2023-09-18T11:39:13;8.45;;;3.78;;
32333;SDS011;18810;53.040;8.850;2023-09-18T11:42:06;9.00;;;4.15;;
32333;SDS011;18810;53.040;8.850;2023-09-18T11:44:35;8.18;;;4.70;;
32333;SDS011;18810;53.040;8.850;2023-09-18T11:47:06;11.57;;;4.40;;
32333;SDS011;18810;53.040;8.850;2023-09-18T11:49:37;5.78;;;4.45;;
32333;SDS011;18810;53.040;8.850;2023-09-18T11:52:07;8.05;;;4.25;;
32333;SDS011;18810;53.040;8.850;2023-09-18T11:54:34;8.25;;;4.63;;
32333;SDS011;18810;53.040;8.850;2023-09-18T11:57:03;11.38;;;5.95;;
32333;SDS011;18810;53.040;8.850;2023-09-18T11:59:39;10.02;;;6.15;;
32333;SDS011;18810;53.040;8.850;2023-09-18T12:02:08;7.40;;;5.95;;
32333;SDS011;18810;53.040;8.850;2023-09-18T12:04:35;10.32;;;6.65;;
32333;SDS011;18810;53.040;8.850;2023-09-18T12:07:03;8.73;;;5.97;;
32333;SDS011;18810;53.040;8.850;2023-09-18T12:09:30;6.18;;;5.57;;
32333;SDS011;18810;53.040;8.850;2023-09-18T12:11:57;8.20;;;6.07;;
32333;SDS011;18810;53.040;8.850;2023-09-18T12:14:31;6.85;;;5.75;;
32333;SDS011;18810;53.040;8.850;2023-09-18T12:16:57;6.15;;;5.38;;
32333;SDS011;18810;53.040;8.850;2023-09-18T12:19:25;8.77;;;5.15;;
32333;SDS011;18810;53.040;8.850;2023-09-18T12:21:50;8.50;;;5.70;;
32333;SDS011;18810;53.040;8.850;2023-09-18T12:26:49;5.60;;;4.95;;
32333;SDS011;18810;53.040;8.850;2023-09-18T12:29:15;6.97;;;4.85;;
32333;SDS011;18810;53.040;8.850;2023-09-18T12:31:41;5.32;;;4.50;;
32333;SDS011;18810;53.040;8.850;2023-09-18T12:34:13;5.68;;;4.97;;
32333;SDS011;18810;53.040;8.850;2023-09-18T12:36:44;5.93;;;4.30;;
32333;SDS011;18810;53.040;8.850;2023-09-18T12:39:14;6.47;;;5.13;;
32333;SDS011;18810;53.040;8.850;2023-09-18T12:41:41;7.15;;;5.25;;
32333;SDS011;18810;53.040;8.850;2023-09-18T12:44:11;4.80;;;4.30;;
32333;SDS011;18810;53.040;8.850;2023-09-18T12:46:37;7.90;;;4.65;;
32333;SDS011;18810;53.040;8.850;2023-09-18T12:49:19;5.65;;;4.80;;
32333;SDS011;18810;53.040;8.850;2023-09-18T12:51:55;6.63;;;4.07;;
32333;SDS011;18810;53.040;8.850;2023-09-18T12:54:44;4.25;;;3.95;;
32333;SDS011;18810;53.040;8.850;2023-09-18T12:57:11;5.28;;;4.22;;
32333;SDS011;18810;53.040;8.850;2023-09-18T12:59:41;5.53;;;4.90;;
32333;SDS011;18810;53.040;8.850;2023-09-18T13:02:07;6.28;;;4.63;;
32333;SDS011;18810;53.040;8.850;2023-09-18T13:04:34;5.30;;;4.60;;
32333;SDS011;18810;53.040;8.850;2023-09-18T13:07:14;8.80;;;5.03;;
32333;SDS011;18810;53.040;8.850;2023-09-18T13:09:40;5.93;;;4.90;;
32333;SDS011;18810;53.040;8.850;2023-09-18T13:12:06;5.65;;;4.95;;
32333;SDS011;18810;53.040;8.850;2023-09-18T13:17:36;5.50;;;4.75;;
32333;SDS011;18810;53.040;8.850;2023-09-18T13:20:16;6.57;;;4.53;;
32333;SDS011;18810;53.040;8.850;2023-09-18T13:22:48;7.22;;;4.97;;
32333;SDS011;18810;53.040;8.850;2023-09-18T13:28:01;5.15;;;4.65;;
32333;SDS011;18810;53.040;8.850;2023-09-18T13:30:29;11.25;;;4.90;;
32333;SDS011;18810;53.040;8.850;2023-09-18T13:33:06;6.55;;;4.75;;
32333;SDS011;18810;53.040;8.850;2023-09-18T13:35:37;5.60;;;4.80;;
32333;SDS011;18810;53.040;8.850;2023-09-18T13:38:05;7.18;;;4.68;;
32333;SDS011;18810;53.040;8.850;2023-09-18T13:40:31;3.90;;;3.58;;
32333;SDS011;18810;53.040;8.850;2023-09-18T13:43:04;6.32;;;3.92;;
32333;SDS011;18810;53.040;8.850;2023-09-18T13:45:31;4.75;;;3.55;;
32333;SDS011;18810;53.040;8.850;2023-09-18T13:48:03;6.70;;;3.42;;
32333;SDS011;18810;53.040;8.850;2023-09-18T13:50:30;5.10;;;3.50;;
32333;SDS011;18810;53.040;8.850;2023-09-18T13:52:56;3.95;;;3.42;;
32333;SDS011;18810;53.040;8.850;2023-09-18T13:55:22;4.65;;;3.15;;
32333;SDS011;18810;53.040;8.850;2023-09-18T13:57:48;7.40;;;3.45;;
32333;SDS011;18810;53.040;8.850;2023-09-18T14:00:14;6.00;;;3.50;;
32333;SDS011;18810;53.040;8.850;2023-09-18T14:02:40;7.40;;;3.35;;
32333;SDS011;18810;53.040;8.850;2023-09-18T14:05:06;4.75;;;3.47;;
32333;SDS011;18810;53.040;8.850;2023-09-18T14:07:34;3.85;;;3.28;;
32333;SDS011;18810;53.040;8.850;2023-09-18T14:10:00;3.50;;;3.20;;
32333;SDS011;18810;53.040;8.850;2023-09-18T14:12:29;3.38;;;2.88;;
32333;SDS011;18810;53.040;8.850;2023-09-18T14:14:55;7.43;;;3.63;;
32333;SDS011;18810;53.040;8.850;2023-09-18T14:17:21;5.07;;;3.35;;
32333;SDS011;18810;53.040;8.850;2023-09-18T14:19:47;4.65;;;2.92;;
32333;SDS011;18810;53.040;8.850;2023-09-18T14:22:13;5.82;;;3.15;;
32333;SDS011;18810;53.040;8.850;2023-09-18T14:24:39;3.05;;;2.80;;
32333;SDS011;18810;53.040;8.850;2023-09-18T14:27:06;4.60;;;3.05;;
32333;SDS011;18810;53.040;8.850;2023-09-18T14:29:32;3.85;;;2.83;;
32333;SDS011;18810;53.040;8.850;2023-09-18T14:31:59;6.00;;;2.83;;
32333;SDS011;18810;53.040;8.850;2023-09-18T14:34:25;2.92;;;2.42;;
32333;SDS011;18810;53.040;8.850;2023-09-18T14:36:51;5.57;;;2.63;;
32333;SDS011;18810;53.040;8.850;2023-09-18T14:39:17;4.88;;;3.00;;
32333;SDS011;18810;53.040;8.850;2023-09-18T14:41:42;4.03;;;2.75;;
32333;SDS011;18810;53.040;8.850;2023-09-18T14:44:09;5.53;;;2.70;;
32333;SDS011;18810;53.040;8.850;2023-09-18T14:46:35;2.88;;;2.67;;
32333;SDS011;18810;53.040;8.850;2023-09-18T14:49:05;4.70;;;2.42;;
32333;SDS011;18810;53.040;8.850;2023-09-18T14:51:32;4.18;;;2.85;;
32333;SDS011;18810;53.040;8.850;2023-09-18T14:53:59;5.75;;;2.75;;
32333;SDS011;18810;53.040;8.850;2023-09-18T14:56:26;3.47;;;2.47;;
32333;SDS011;18810;53.040;8.850;2023-09-18T14:58:52;4.20;;;2.20;;
32333;SDS011;18810;53.040;8.850;2023-09-18T15:01:20;2.90;;;2.33;;
32333;SDS011;18810;53.040;8.850;2023-09-18T15:03:46;3.53;;;2.30;;
32333;SDS011;18810;53.040;8.850;2023-09-18T15:06:14;5.45;;;2.80;;
32333;SDS011;18810;53.040;8.850;2023-09-18T15:08:40;4.45;;;2.30;;